createdAt,value
2019-05-05T00:02:04.429Z,76.5
2019-05-05T00:07:00.747Z,76.5
2019-05-05T00:11:57.599Z,76.2
2019-05-05T00:16:54.705Z,75.9
2019-05-05T00:26:48.404Z,74.1
2019-05-05T00:31:46.851Z,75.2
2019-05-05T00:36:44.563Z,76
2019-05-05T00:41:40.355Z,76.8
2019-05-05T00:46:36.778Z,77.6
2019-05-05T00:51:34.783Z,77.4
2019-05-05T00:56:30.447Z,77
2019-05-05T01:01:27.201Z,77.4
2019-05-05T01:06:25.533Z,77
2019-05-05T01:11:21.057Z,78.3
2019-05-05T01:16:20.453Z,77.5
2019-05-05T01:21:16.908Z,77.9
2019-05-05T01:31:11.262Z,77.3
2019-05-05T01:36:08.447Z,78
2019-05-05T01:41:08.293Z,78.6
2019-05-05T01:46:05.095Z,77.9
2019-05-05T01:51:01.501Z,77.6
2019-05-05T01:55:58.314Z,77.3
2019-05-05T02:05:54.563Z,77.4
2019-05-05T02:10:50.218Z,78
2019-05-05T02:15:47.006Z,77.7
2019-05-05T02:20:45.040Z,77.8
2019-05-05T02:25:40.951Z,77
2019-05-05T02:35:35.356Z,76.9
2019-05-05T02:40:34.711Z,76.6
2019-05-05T02:45:28.668Z,76.9
2019-05-05T02:50:25.367Z,78.5
2019-05-05T02:55:23.459Z,79.3
2019-05-05T03:00:19.012Z,80.6
2019-05-05T03:05:15.792Z,80.9
2019-05-05T03:10:14.072Z,80.8
2019-05-05T03:15:09.486Z,81.4
2019-05-05T03:20:06.268Z,81.3
2019-05-05T03:25:04.597Z,83.3
2019-05-05T03:29:59.914Z,84.2
2019-05-05T03:34:56.641Z,85.1
2019-05-05T03:39:53.722Z,85
2019-05-05T03:44:50.269Z,84.5
2019-05-05T03:49:47.013Z,83.5
2019-05-05T03:54:43.718Z,83.1
2019-05-05T03:59:44.235Z,83.5
2019-05-05T04:04:39.971Z,83.1
2019-05-05T04:09:36.890Z,83.2
2019-05-05T04:14:34.722Z,84.2
2019-05-05T04:19:30.436Z,84.1
2019-05-05T04:24:27.198Z,82.9
2019-05-05T04:29:24.450Z,82.5
2019-05-05T04:34:21.146Z,82
2019-05-05T04:39:18.378Z,80.9
2019-05-05T04:44:17.890Z,78.5
2019-05-05T04:49:13.973Z,76.9
2019-05-05T04:54:10.523Z,78.6
2019-05-05T04:59:10.111Z,80.4
2019-05-05T05:04:09.387Z,80.8
2019-05-05T05:09:08.412Z,81.7
2019-05-05T05:14:07.536Z,82.6
2019-05-05T05:19:04.346Z,81.9
2019-05-05T05:24:00.967Z,83.8
2019-05-05T05:28:58.857Z,84.5
2019-05-05T05:33:55.001Z,83.6
2019-05-05T05:38:54.274Z,82.9
2019-05-05T05:43:53.974Z,83.8
2019-05-05T05:48:49.421Z,81.4
2019-05-05T05:53:46.600Z,81
2019-05-05T05:58:44.397Z,79.7
2019-05-05T06:03:41.795Z,81.6
2019-05-05T06:08:38.481Z,82.3
2019-05-05T06:13:35.099Z,82.1
2019-05-05T06:18:34.453Z,81
2019-05-05T06:23:29.594Z,79.2
2019-05-05T06:28:26.588Z,77
2019-05-05T06:33:24.254Z,74.8
2019-05-05T06:38:21.345Z,71.8
2019-05-05T06:43:18.678Z,73.1
2019-05-05T06:48:15.873Z,70.9
2019-05-05T06:53:13.861Z,64
2019-05-05T06:58:13.634Z,61.3
2019-05-05T07:03:10.490Z,58.4
2019-05-05T07:08:08.372Z,61
2019-05-05T07:13:05.782Z,61.5
2019-05-05T07:18:03.681Z,61.7
2019-05-05T07:23:02.869Z,68
2019-05-05T07:27:56.720Z,70.3
2019-05-05T07:32:53.686Z,71.6
2019-05-05T07:37:49.472Z,70.2
2019-05-05T07:42:46.044Z,69.6
2019-05-05T07:47:43.648Z,68.6
2019-05-05T07:52:39.613Z,70.5
2019-05-05T07:57:36.424Z,70.6
2019-05-05T08:02:33.983Z,72.6
2019-05-05T08:07:30.482Z,76
2019-05-05T08:12:27.286Z,74.3
2019-05-05T08:17:24.014Z,72.2
2019-05-05T08:22:21.071Z,74
2019-05-05T08:27:20.854Z,69.2
2019-05-05T08:32:15.135Z,68.7
2019-05-05T08:37:14.550Z,63.2
2019-05-05T08:42:09.509Z,65
2019-05-05T08:47:06.589Z,62.6
2019-05-05T08:52:04.113Z,62.4
2019-05-05T08:57:00.807Z,63.7
2019-05-05T09:01:58.105Z,63.8
2019-05-05T09:06:55.189Z,64
2019-05-05T09:11:54.141Z,63.8
2019-05-05T09:16:49.152Z,64.2
2019-05-05T09:21:46.439Z,62.9
2019-05-05T09:26:43.796Z,65.6
2019-05-05T09:31:40.615Z,68.2
2019-05-05T09:36:37.502Z,67.9
2019-05-05T09:41:34.441Z,67.9
2019-05-05T09:46:33.925Z,66.2
2019-05-05T09:51:29.322Z,65.2
2019-05-05T09:56:26.822Z,62.3
2019-05-05T10:01:24.711Z,54.3
2019-05-05T10:06:24.370Z,52
2019-05-05T10:11:23.702Z,47.4
2019-05-05T10:16:20.934Z,38.2
2019-05-05T10:21:20.483Z,36.1
2019-05-05T10:26:18.840Z,40.5
2019-05-05T10:31:16.506Z,42.5
2019-05-05T10:36:13.804Z,42.4
2019-05-05T10:41:09.709Z,43
2019-05-05T10:46:06.474Z,45.7
2019-05-05T10:51:04.395Z,35
2019-05-05T10:56:04.385Z,36.4
2019-05-05T11:01:03.939Z,31.6
2019-05-05T11:06:00.497Z,31
2019-05-05T11:10:58.663Z,29
2019-05-05T11:15:56.941Z,30.8
2019-05-05T11:20:54.908Z,31.3
2019-05-05T11:25:52.102Z,31.6
2019-05-05T11:30:49.216Z,32.3
2019-05-05T11:35:46.422Z,32.3
2019-05-05T11:40:43.897Z,32
2019-05-05T11:45:40.535Z,33.5
2019-05-05T11:50:37.453Z,33.9
2019-05-05T11:55:34.676Z,37.5
2019-05-05T12:00:30.784Z,38.7
2019-05-05T12:05:26.951Z,45.7
2019-05-05T12:10:23.669Z,48.3
2019-05-05T12:15:17.525Z,49
2019-05-05T12:20:13.579Z,51.2
2019-05-05T12:25:08.477Z,51.2
2019-05-05T12:30:05.077Z,53
2019-05-05T12:35:01.395Z,53.4
2019-05-05T12:39:57.719Z,55.4
2019-05-05T12:44:54.099Z,54.7
2019-05-05T12:49:50.633Z,54.9
2019-05-05T12:54:47.672Z,56.2
2019-05-05T12:59:44.899Z,53.5
2019-05-05T13:04:41.801Z,47
2019-05-05T13:09:40.313Z,43.7
2019-05-05T13:14:38.787Z,44.7
2019-05-05T13:19:36.988Z,44.4
2019-05-05T13:24:34.820Z,47.1
2019-05-05T13:29:33.658Z,50.9
2019-05-05T13:34:28.260Z,51.7
2019-05-05T13:39:24.769Z,57.1
2019-05-05T13:44:21.144Z,53
2019-05-05T13:49:17.966Z,53.5
2019-05-05T13:54:15.073Z,51
2019-05-05T13:59:14.047Z,48.2
2019-05-05T14:04:10.585Z,47.9
2019-05-05T14:09:08.417Z,49.5
2019-05-05T14:14:04.933Z,52.5
2019-05-05T14:19:01.424Z,55.2
2019-05-05T14:23:58.097Z,54.3
2019-05-05T14:28:54.763Z,53.4
2019-05-05T14:33:51.636Z,53.3
2019-05-05T14:38:49.529Z,50.9
2019-05-05T14:43:45.274Z,54.9
2019-05-05T14:48:43.943Z,55
2019-05-05T14:53:39.237Z,55.3
2019-05-05T14:58:36.335Z,58.1
2019-05-05T15:03:33.657Z,58.3
2019-05-05T15:08:29.834Z,57.4
2019-05-05T15:18:24.218Z,59.6
2019-05-05T15:23:20.445Z,63.6
2019-05-05T15:28:17.253Z,65.3
2019-05-05T15:33:13.987Z,67.3
2019-05-05T15:38:11.061Z,67.1
2019-05-05T15:43:07.819Z,70.2
2019-05-05T15:48:04.701Z,70.1
2019-05-05T15:53:01.206Z,70.9
2019-05-05T15:57:58.406Z,72.3
2019-05-05T16:02:54.991Z,72.5
2019-05-05T16:07:51.931Z,73
2019-05-05T16:12:48.826Z,73.6
2019-05-05T16:17:45.814Z,73.6
2019-05-05T16:22:43.663Z,76.1
2019-05-05T16:27:38.985Z,78.1
2019-05-05T16:32:36.138Z,80.6
2019-05-05T16:37:33.477Z,83.1
2019-05-05T16:42:29.919Z,83.9
2019-05-05T16:47:26.703Z,84.3
2019-05-05T16:52:23.939Z,85.3
2019-05-05T16:57:31.718Z,86.2
2019-05-05T17:02:16.693Z,86.5
2019-05-05T17:07:14.229Z,86.4
2019-05-05T17:12:10.764Z,87
2019-05-05T17:17:07.701Z,87.6
2019-05-05T17:22:04.327Z,88
2019-05-05T17:27:01.111Z,88.4
2019-05-05T17:31:58.217Z,89.2
2019-05-05T17:36:54.883Z,89.3
2019-05-05T17:41:53.866Z,89.4
2019-05-05T17:46:48.574Z,89.9
2019-05-05T17:51:45.572Z,89.4
2019-05-05T17:56:42.097Z,89.4
2019-05-05T18:01:38.517Z,89.7
2019-05-05T18:06:35.334Z,89.8
2019-05-05T18:11:32.280Z,89.9
2019-05-05T18:16:29.234Z,90.3
2019-05-05T18:21:28.701Z,90.6
2019-05-05T18:26:26.556Z,90.4
2019-05-05T18:31:24.225Z,90.6
2019-05-05T18:36:19.112Z,90.7
2019-05-05T18:41:16.043Z,90.6
2019-05-05T18:46:13.621Z,90.1
2019-05-05T18:51:09.967Z,90.2
2019-05-05T18:56:06.850Z,90.1
2019-05-05T19:01:03.915Z,90.4
2019-05-05T19:06:00.505Z,90.3
2019-05-05T19:10:57.276Z,90.9
2019-05-05T19:15:54.100Z,91.4
2019-05-05T19:20:51.001Z,91.9
2019-05-05T19:25:47.960Z,92.1
2019-05-05T19:30:45.114Z,91.4
2019-05-05T19:35:44.964Z,91.2
2019-05-05T19:40:38.859Z,91.2
2019-05-05T19:45:35.503Z,91
2019-05-05T19:50:33.723Z,90.6
2019-05-05T19:55:29.165Z,90.7
2019-05-05T20:00:26.237Z,90.3
2019-05-05T20:05:24.540Z,89.6
2019-05-05T20:10:19.768Z,90.2
2019-05-05T20:15:16.115Z,90.1
2019-05-05T20:20:13.791Z,89.8
2019-05-05T20:25:10.011Z,90.3
2019-05-05T20:30:07.151Z,90
2019-05-05T20:35:04.177Z,90.5
2019-05-05T20:40:00.562Z,90.5
2019-05-05T20:44:57.447Z,90.9
2019-05-05T20:49:54.764Z,90.9
2019-05-05T20:54:53.710Z,90.7
2019-05-05T20:59:48.505Z,91.1
2019-05-05T21:04:45.467Z,91.1
2019-05-05T21:09:42.332Z,91.3
2019-05-05T21:14:39.104Z,91.8
2019-05-05T21:19:36.027Z,92.1
2019-05-05T21:24:33.474Z,92.3
2019-05-05T21:29:39.324Z,92.1
2019-05-05T21:34:26.774Z,91.7
2019-05-05T21:39:24.806Z,91.8
2019-05-05T21:44:20.880Z,91.8
2019-05-05T21:49:17.946Z,91.3
2019-05-05T21:54:15.034Z,90.8
2019-05-05T21:59:13.978Z,90.8
2019-05-05T22:04:08.603Z,90.5
2019-05-05T22:09:05.411Z,90.2
2019-05-05T22:14:04.224Z,89.4
2019-05-05T22:18:59.070Z,88.9
2019-05-05T22:23:55.843Z,88.2
2019-05-05T22:28:54.096Z,88.8
2019-05-05T22:33:49.740Z,89
2019-05-05T22:38:46.691Z,88
2019-05-05T22:43:44.245Z,87.2
2019-05-05T22:48:40.596Z,87.5
2019-05-05T22:53:37.297Z,87.4
2019-05-05T22:58:34.790Z,88
2019-05-05T23:03:31.020Z,87.6
2019-05-05T23:08:27.827Z,89.1
2019-05-05T23:13:24.897Z,89
2019-05-05T23:18:25.304Z,90.2
2019-05-05T23:23:18.673Z,90
2019-05-05T23:28:15.443Z,89.1
2019-05-05T23:33:13.849Z,90.6
2019-05-05T23:38:09.184Z,90.9
2019-05-05T23:43:05.900Z,91.1
2019-05-05T23:48:03.689Z,91.1
2019-05-05T23:52:59.545Z,90.9
2019-05-05T23:57:56.494Z,90.8
